Time;durP1;ratioP1;P1;durP2;ratioP2;P2;SDS_P1;SDS_P2;PMS_P1;PMS_P2;Temp;Humidity;BMP_temperature;BMP_pressure;BME280_temperature;BME280_humidity;BME280_pressure;Samples;Min_cycle;Max_cycle;Signal;HPM_P1;HPM_P2
2021/12/14 00:01:11;;;;;;;21.07;15.97;;;8.70;99.90;;;;;;4979770;28;20179;-80
2021/12/14 00:03:42;;;;;;;20.93;15.87;;;8.60;99.90;;;;;;4966606;28;20175;-81
2021/12/14 00:06:12;;;;;;;22.93;17.00;;;8.70;99.90;;;;;;4982665;28;20167;-82
2021/12/14 00:08:55;;;;;;;20.20;16.87;;;8.70;99.90;;;;;;4970121;28;20227;-81
2021/12/14 00:11:35;;;;;;;23.33;16.13;;;8.70;99.90;;;;;;4982110;28;20191;-81
2021/12/14 00:14:27;;;;;;;20.00;17.43;;;8.70;99.90;;;;;;4981782;28;20223;-81
2021/12/14 00:16:58;;;;;;;18.47;15.87;;;8.70;99.90;;;;;;4979604;28;20219;-81
2021/12/14 00:19:26;;;;;;;21.40;17.00;;;8.70;99.90;;;;;;4995542;28;20195;-81
2021/12/14 00:21:54;;;;;;;19.83;16.70;;;8.70;99.90;;;;;;4996914;28;20203;-81
2021/12/14 00:24:25;;;;;;;24.17;17.60;;;8.70;99.90;;;;;;4963912;28;20183;-81
2021/12/14 00:26:54;;;;;;;23.37;18.23;;;8.70;99.90;;;;;;4966581;28;20214;-82
2021/12/14 00:29:36;;;;;;;22.80;17.87;;;8.70;99.90;;;;;;4971812;28;20627;-81
2021/12/14 00:32:09;;;;;;;20.73;16.47;;;8.70;99.90;;;;;;4980478;28;20179;-81
2021/12/14 00:34:38;;;;;;;22.17;16.80;;;8.70;99.90;;;;;;4980786;28;20198;-80
2021/12/14 00:37:07;;;;;;;20.43;16.73;;;8.70;99.90;;;;;;4995463;28;20199;-79
2021/12/14 00:39:34;;;;;;;22.67;16.43;;;8.70;99.90;;;;;;4992600;28;20201;-81
2021/12/14 00:42:04;;;;;;;20.30;16.27;;;8.70;99.90;;;;;;4970335;28;20204;-81
2021/12/14 00:44:30;;;;;;;19.70;16.40;;;8.70;99.90;;;;;;4981120;28;20188;-80
2021/12/14 00:47:00;;;;;;;21.93;16.53;;;8.70;99.90;;;;;;4977684;28;20205;-80
2021/12/14 00:49:32;;;;;;;25.07;16.73;;;8.70;99.90;;;;;;4984497;28;20181;-79
2021/12/14 00:51:58;;;;;;;20.80;15.73;;;8.70;99.90;;;;;;4999824;28;20277;-79
2021/12/14 00:54:28;;;;;;;21.07;16.47;;;8.60;99.90;;;;;;4969554;28;20221;-81
2021/12/14 00:56:54;;;;;;;22.97;15.50;;;8.60;99.90;;;;;;4981290;28;20207;-80
2021/12/14 00:59:38;;;;;;;22.93;18.07;;;8.60;99.90;;;;;;4965810;28;20180;-81
2021/12/14 01:02:19;;;;;;;23.07;16.90;;;8.60;99.90;;;;;;4995976;28;20271;-81
2021/12/14 01:04:53;;;;;;;22.43;17.40;;;8.60;99.90;;;;;;4995556;28;20263;-81
2021/12/14 01:07:30;;;;;;;20.80;16.37;;;8.60;99.90;;;;;;4985812;28;20219;-80
2021/12/14 01:10:06;;;;;;;21.03;17.00;;;8.60;99.90;;;;;;4968829;28;20627;-80
2021/12/14 01:12:48;;;;;;;21.97;16.70;;;8.70;99.90;;;;;;4994765;28;20219;-80
2021/12/14 01:15:42;;;;;;;22.23;17.00;;;8.80;99.90;;;;;;4996728;28;20254;-80
2021/12/14 01:18:35;;;;;;;24.23;17.63;;;8.80;99.90;;;;;;4999404;28;20232;-80
2021/12/14 01:24:03;;;;;;;21.60;17.63;;;8.70;99.90;;;;;;4986088;28;20186;-80
2021/12/14 01:26:32;;;;;;;24.90;17.03;;;8.70;99.90;;;;;;4965556;28;20174;-80
2021/12/14 01:29:10;;;;;;;22.27;17.60;;;8.80;99.90;;;;;;4964796;28;20196;-80
2021/12/14 01:31:40;;;;;;;21.37;16.73;;;8.70;99.90;;;;;;4998939;28;20203;-80
2021/12/14 01:34:16;;;;;;;20.17;16.03;;;8.70;99.90;;;;;;4973716;28;20185;-80
2021/12/14 01:36:48;;;;;;;22.27;16.80;;;8.70;99.90;;;;;;4976670;28;20714;-80
2021/12/14 01:42:02;;;;;;;18.73;15.43;;;8.70;99.90;;;;;;5008975;28;20236;-80
2021/12/14 01:44:35;;;;;;;22.83;15.73;;;8.70;99.90;;;;;;4979652;28;20186;-81
2021/12/14 01:47:23;;;;;;;20.27;14.93;;;8.70;99.90;;;;;;4979018;28;20250;-80
2021/12/14 01:50:26;;;;;;;20.53;15.80;;;8.60;99.90;;;;;;4991911;28;20286;-82
2021/12/14 01:53:21;;;;;;;18.57;15.27;;;8.70;99.90;;;;;;4983749;28;20174;-80
2021/12/14 01:55:53;;;;;;;23.07;16.97;;;8.70;99.90;;;;;;4996708;28;20156;-79
2021/12/14 01:58:56;;;;;;;19.57;15.53;;;8.70;99.90;;;;;;4984259;28;20706;-77
2021/12/14 02:02:21;;;;;;;21.43;16.13;;;8.70;99.90;;;;;;4951480;28;20207;-77
2021/12/14 02:04:33;;;;;;;20.87;15.77;;;8.60;99.90;;;;;;4995052;28;20184;-77
2021/12/14 02:07:10;;;;;;;21.03;16.77;;;8.60;99.90;;;;;;4994374;28;20201;-77
2021/12/14 02:09:42;;;;;;;20.97;17.00;;;8.70;99.90;;;;;;4977224;28;20184;-78
2021/12/14 02:12:27;;;;;;;20.63;16.63;;;8.60;99.90;;;;;;4988266;28;20168;-78
2021/12/14 02:15:00;;;;;;;21.33;16.03;;;8.60;99.90;;;;;;4978904;28;20192;-77
2021/12/14 02:17:29;;;;;;;21.83;16.73;;;8.60;99.90;;;;;;4968752;28;20211;-78
2021/12/14 02:20:01;;;;;;;20.50;15.97;;;8.60;99.90;;;;;;4998810;28;20207;-77
2021/12/14 02:22:35;;;;;;;21.17;16.50;;;8.60;99.90;;;;;;4980101;28;20208;-76
2021/12/14 02:25:03;;;;;;;23.47;17.10;;;8.60;99.90;;;;;;4975218;28;20222;-78
2021/12/14 02:27:46;;;;;;;21.57;16.23;;;8.60;99.90;;;;;;4980688;28;20208;-77
2021/12/14 02:30:23;;;;;;;20.07;16.20;;;8.60;99.90;;;;;;4998808;28;20175;-77
2021/12/14 02:32:54;;;;;;;23.70;16.77;;;8.60;99.90;;;;;;4988360;28;20171;-79
2021/12/14 02:35:24;;;;;;;20.63;16.43;;;8.60;99.90;;;;;;4995064;28;20187;-80
2021/12/14 02:37:57;;;;;;;21.57;17.30;;;8.50;99.90;;;;;;4984857;28;20290;-79
2021/12/14 02:40:54;;;;;;;19.97;15.40;;;8.60;99.90;;;;;;4986278;28;20213;-78
2021/12/14 02:43:47;;;;;;;23.27;16.60;;;8.60;99.90;;;;;;4977469;28;20219;-77
2021/12/14 02:46:56;;;;;;;21.40;16.33;;;8.60;99.90;;;;;;4971297;28;20198;-78
2021/12/14 02:49:29;;;;;;;22.03;16.90;;;8.60;99.90;;;;;;4974714;28;20187;-74
2021/12/14 02:52:37;;;;;;;22.00;16.83;;;8.60;99.90;;;;;;4965017;28;20187;-75
2021/12/14 02:55:21;;;;;;;24.87;16.97;;;8.60;99.90;;;;;;4994093;28;20177;-76
2021/12/14 02:57:53;;;;;;;24.83;17.43;;;8.60;99.90;;;;;;4978346;28;20199;-77
2021/12/14 03:00:48;;;;;;;21.03;16.37;;;8.60;99.90;;;;;;4995372;28;20257;-76
2021/12/14 03:03:18;;;;;;;23.00;17.00;;;8.60;99.90;;;;;;4979376;28;20215;-78
2021/12/14 03:06:02;;;;;;;20.43;16.00;;;8.60;99.90;;;;;;4994124;28;20623;-76
2021/12/14 03:08:43;;;;;;;21.57;16.70;;;8.60;99.90;;;;;;4979043;28;20196;-77
2021/12/14 03:11:16;;;;;;;20.73;16.90;;;8.60;99.90;;;;;;4996872;28;20179;-77
2021/12/14 03:13:50;;;;;;;23.90;18.37;;;8.60;99.90;;;;;;4967758;28;20536;-75
2021/12/14 03:16:26;;;;;;;23.17;17.43;;;8.60;99.90;;;;;;4978901;28;20714;-76
2021/12/14 03:18:57;;;;;;;22.53;17.20;;;8.60;99.90;;;;;;4966589;28;20217;-76
2021/12/14 03:21:32;;;;;;;21.33;16.10;;;8.70;99.90;;;;;;4987606;28;20203;-76
2021/12/14 03:24:11;;;;;;;20.97;16.60;;;8.60;99.90;;;;;;4977804;28;20240;-76
2021/12/14 03:27:03;;;;;;;20.20;16.70;;;8.60;99.90;;;;;;4985402;28;20643;-76
2021/12/14 03:29:36;;;;;;;20.23;16.43;;;8.60;99.90;;;;;;4993279;28;20168;-77
2021/12/14 03:32:08;;;;;;;21.60;16.43;;;8.60;99.90;;;;;;5006022;28;20172;-76
2021/12/14 03:34:42;;;;;;;19.57;15.73;;;8.60;99.90;;;;;;4980483;28;20199;-77
2021/12/14 03:37:31;;;;;;;23.27;16.37;;;8.60;99.90;;;;;;4974823;28;20303;-77
2021/12/14 03:40:08;;;;;;;21.10;17.27;;;8.60;99.90;;;;;;4990632;28;20183;-76
2021/12/14 03:42:50;;;;;;;20.77;15.97;;;8.50;99.90;;;;;;4996812;28;20230;-76
2021/12/14 03:45:21;;;;;;;20.40;16.63;;;8.50;99.90;;;;;;4986986;28;20516;-76
2021/12/14 03:47:55;;;;;;;22.73;17.00;;;8.50;99.90;;;;;;4981989;28;20207;-76
2021/12/14 03:50:32;;;;;;;18.77;15.40;;;8.60;99.90;;;;;;4979766;28;20167;-77
2021/12/14 03:53:00;;;;;;;19.73;15.50;;;8.60;99.90;;;;;;4985336;28;20273;-77
2021/12/14 03:55:57;;;;;;;19.93;15.63;;;8.60;99.90;;;;;;4984222;28;20185;-76
2021/12/14 03:58:37;;;;;;;20.23;15.73;;;8.60;99.90;;;;;;4976827;28;20287;-76
2021/12/14 04:01:17;;;;;;;18.73;15.20;;;8.50;99.90;;;;;;4961380;28;20214;-76
2021/12/14 04:03:58;;;;;;;21.93;15.30;;;8.50;99.90;;;;;;4969036;28;20207;-76
2021/12/14 04:07:10;;;;;;;19.63;15.23;;;8.50;99.90;;;;;;4971051;28;20184;-77
2021/12/14 04:09:46;;;;;;;21.43;15.67;;;8.40;99.90;;;;;;4978420;28;20183;-77
2021/12/14 04:12:16;;;;;;;21.10;16.43;;;8.40;99.90;;;;;;4983349;28;20170;-77
2021/12/14 04:14:46;;;;;;;20.97;16.17;;;8.40;99.90;;;;;;4991457;28;20182;-79
2021/12/14 04:17:16;;;;;;;17.40;14.90;;;8.40;99.90;;;;;;4993569;28;20202;-79
2021/12/14 04:19:43;;;;;;;21.00;17.00;;;8.40;99.90;;;;;;4978821;28;20191;-79
2021/12/14 04:22:15;;;;;;;20.27;16.73;;;8.40;99.90;;;;;;4996871;28;20207;-78
2021/12/14 04:24:41;;;;;;;23.30;16.73;;;8.40;99.90;;;;;;4980305;28;20177;-79
2021/12/14 04:27:22;;;;;;;19.13;15.23;;;8.40;99.90;;;;;;4983322;28;20196;-79
2021/12/14 04:29:49;;;;;;;21.23;16.67;;;8.50;99.90;;;;;;4979609;28;20179;-79
2021/12/14 04:32:17;;;;;;;18.50;15.33;;;8.50;99.90;;;;;;4968250;28;20264;-79
2021/12/14 04:34:44;;;;;;;19.37;16.03;;;8.50;99.90;;;;;;4964891;28;20207;-80
2021/12/14 04:37:11;;;;;;;19.90;16.37;;;8.40;99.90;;;;;;4966804;28;20199;-79
2021/12/14 04:39:44;;;;;;;22.00;15.30;;;8.50;99.90;;;;;;4984645;28;20207;-79
2021/12/14 04:53:54;;;;;;;19.40;14.87;;;8.40;99.90;;;;;;4979593;28;20171;-80
2021/12/14 04:56:27;;;;;;;19.53;15.43;;;8.40;99.90;;;;;;4977410;28;20178;-79
2021/12/14 04:59:01;;;;;;;19.50;14.50;;;8.40;99.90;;;;;;4965681;28;20160;-79
2021/12/14 05:01:26;;;;;;;17.00;14.40;;;8.30;99.90;;;;;;4980091;28;20209;-80
2021/12/14 05:03:58;;;;;;;17.63;14.80;;;8.40;99.90;;;;;;5007626;28;20248;-77
2021/12/14 05:06:33;;;;;;;18.63;14.73;;;8.40;99.90;;;;;;5000328;28;20319;-79
2021/12/14 05:09:21;;;;;;;18.03;14.53;;;8.40;99.90;;;;;;4971318;28;20304;-78
2021/12/14 05:12:08;;;;;;;16.67;13.43;;;8.40;99.90;;;;;;4975930;28;20182;-79
2021/12/14 05:14:44;;;;;;;17.27;13.63;;;8.40;99.90;;;;;;4985172;28;20203;-79
2021/12/14 05:17:16;;;;;;;16.43;13.83;;;8.40;99.90;;;;;;4967747;28;20228;-78
2021/12/14 05:19:44;;;;;;;16.50;13.57;;;8.40;99.90;;;;;;4967282;28;20195;-78
2021/12/14 05:22:16;;;;;;;15.83;13.97;;;8.40;99.90;;;;;;4972833;28;20199;-79
2021/12/14 05:24:52;;;;;;;19.60;14.80;;;8.30;99.90;;;;;;4968838;28;20262;-79
2021/12/14 05:27:29;;;;;;;18.57;13.43;;;8.30;99.90;;;;;;4975546;28;20649;-79
2021/12/14 05:30:25;;;;;;;17.57;13.87;;;8.20;99.90;;;;;;4979439;28;20627;-80
2021/12/14 05:33:09;;;;;;;17.53;13.07;;;8.20;99.90;;;;;;4983504;28;20180;-80
2021/12/14 05:35:40;;;;;;;16.03;13.00;;;8.20;99.90;;;;;;4996514;28;20278;-80
2021/12/14 05:38:18;;;;;;;17.83;13.50;;;8.30;99.90;;;;;;4964961;28;20210;-80
2021/12/14 05:43:38;;;;;;;16.33;13.00;;;8.20;99.90;;;;;;4968097;28;20233;-80
2021/12/14 05:46:20;;;;;;;16.37;13.17;;;8.30;99.90;;;;;;4980849;28;20266;-80
2021/12/14 05:49:03;;;;;;;15.80;13.63;;;8.30;99.90;;;;;;4994043;28;20231;-80
2021/12/14 05:51:31;;;;;;;15.00;12.93;;;8.30;99.90;;;;;;4987656;28;20272;-80
2021/12/14 05:53:59;;;;;;;16.43;13.17;;;8.30;99.90;;;;;;4973166;28;20270;-80
2021/12/14 05:56:26;;;;;;;15.93;13.73;;;8.30;99.90;;;;;;4969784;28;20179;-79
2021/12/14 05:58:54;;;;;;;15.70;13.43;;;8.30;99.90;;;;;;4969481;28;20190;-81
2021/12/14 06:01:32;;;;;;;14.20;12.30;;;8.30;99.90;;;;;;4994315;28;20203;-79
2021/12/14 06:04:07;;;;;;;17.13;12.53;;;8.30;99.90;;;;;;4996343;28;20582;-79
2021/12/14 06:06:38;;;;;;;15.13;12.90;;;8.40;99.90;;;;;;4997723;28;20175;-79
2021/12/14 06:09:23;;;;;;;13.43;11.97;;;8.40;99.90;;;;;;4984563;28;20176;-79
2021/12/14 06:12:09;;;;;;;14.43;12.23;;;8.40;99.90;;;;;;4987115;28;20207;-77
2021/12/14 06:14:42;;;;;;;18.30;12.73;;;8.40;99.90;;;;;;4994380;28;20205;-76
2021/12/14 06:17:10;;;;;;;15.70;13.50;;;8.40;99.90;;;;;;4977867;28;20210;-77
2021/12/14 06:19:39;;;;;;;18.30;13.30;;;8.40;99.90;;;;;;4957275;28;20191;-77
2021/12/14 06:22:16;;;;;;;16.30;12.73;;;8.40;99.90;;;;;;4975060;28;20203;-77
2021/12/14 06:24:48;;;;;;;15.27;12.73;;;8.40;99.90;;;;;;4981245;28;20218;-77
2021/12/14 06:27:19;;;;;;;14.63;12.77;;;8.30;99.90;;;;;;4979241;28;20204;-77
2021/12/14 06:29:53;;;;;;;16.67;14.27;;;8.30;99.90;;;;;;4962570;28;20230;-77
2021/12/14 06:32:26;;;;;;;19.43;14.50;;;8.10;99.90;;;;;;4977942;28;20182;-77
2021/12/14 06:35:06;;;;;;;19.27;15.07;;;7.90;99.90;;;;;;4979257;28;20222;-77
2021/12/14 06:38:05;;;;;;;20.07;15.13;;;7.80;99.90;;;;;;4976764;28;20219;-77
2021/12/14 06:40:35;;;;;;;19.00;15.47;;;7.70;99.90;;;;;;4978414;28;20263;-77
2021/12/14 06:43:08;;;;;;;20.00;15.40;;;7.70;99.90;;;;;;4978439;28;20234;-77
2021/12/14 06:46:00;;;;;;;19.53;16.77;;;7.60;99.90;;;;;;4987384;28;20178;-78
2021/12/14 06:48:29;;;;;;;20.10;16.43;;;7.60;99.90;;;;;;4994180;28;20207;-77
2021/12/14 06:51:14;;;;;;;21.13;16.37;;;7.50;99.90;;;;;;4982601;28;20254;-78
2021/12/14 06:54:05;;;;;;;21.67;16.97;;;7.50;99.90;;;;;;4972573;28;20163;-78
2021/12/14 06:57:05;;;;;;;19.70;16.43;;;7.50;99.90;;;;;;4971129;28;20282;-78
2021/12/14 06:59:55;;;;;;;21.03;17.13;;;7.50;99.90;;;;;;4976161;28;20572;-77
2021/12/14 07:02:31;;;;;;;22.13;16.10;;;7.50;99.90;;;;;;4978961;28;20203;-77
2021/12/14 07:05:15;;;;;;;22.97;17.27;;;7.60;99.90;;;;;;4987635;28;20195;-76
2021/12/14 07:07:45;;;;;;;20.47;16.47;;;7.60;99.90;;;;;;4977678;28;20199;-77
2021/12/14 07:10:14;;;;;;;20.77;15.70;;;7.70;99.90;;;;;;4970707;28;20224;-76
2021/12/14 07:12:46;;;;;;;20.13;16.33;;;7.70;99.90;;;;;;4994181;28;20247;-77
2021/12/14 07:15:19;;;;;;;20.00;15.93;;;7.80;99.90;;;;;;4971877;28;20246;-78
2021/12/14 07:18:03;;;;;;;19.60;15.83;;;7.80;99.90;;;;;;4964979;28;20571;-77
2021/12/14 07:20:33;;;;;;;25.00;16.73;;;7.90;99.90;;;;;;4970269;28;20590;-76
2021/12/14 07:23:18;;;;;;;20.77;16.33;;;7.90;99.90;;;;;;4977875;28;20203;-77
2021/12/14 07:25:54;;;;;;;22.93;15.67;;;7.90;99.90;;;;;;4977350;28;20209;-77
2021/12/14 07:28:19;;;;;;;24.37;17.23;;;7.90;99.90;;;;;;4994714;28;20285;-76
2021/12/14 07:30:49;;;;;;;20.83;17.13;;;7.90;99.90;;;;;;4990590;28;20287;-77
2021/12/14 07:33:20;;;;;;;24.17;17.10;;;8.00;99.90;;;;;;4968127;28;20202;-76
2021/12/14 07:36:07;;;;;;;23.07;17.07;;;8.00;99.90;;;;;;4980023;28;20172;-78
2021/12/14 07:38:49;;;;;;;23.33;17.10;;;8.00;99.90;;;;;;4990714;28;20288;-76
2021/12/14 07:41:29;;;;;;;22.93;16.97;;;8.00;99.90;;;;;;4971840;28;20179;-78
2021/12/14 07:43:57;;;;;;;22.93;17.13;;;8.00;99.90;;;;;;4994295;28;20268;-78
2021/12/14 07:46:43;;;;;;;23.00;16.80;;;8.00;99.90;;;;;;4972743;28;20182;-78
2021/12/14 07:49:22;;;;;;;24.80;17.67;;;7.90;99.90;;;;;;4978670;28;20647;-78
2021/12/14 07:52:00;;;;;;;23.33;18.43;;;7.80;99.90;;;;;;4995025;28;20191;-77
2021/12/14 07:54:33;;;;;;;27.13;19.67;;;7.60;99.90;;;;;;4974460;28;20196;-78
2021/12/14 07:57:03;;;;;;;29.67;20.53;;;7.60;99.90;;;;;;4992286;28;20218;-77
2021/12/14 07:59:43;;;;;;;27.77;19.47;;;7.50;99.90;;;;;;4980999;28;20163;-77
2021/12/14 08:02:28;;;;;;;30.70;21.83;;;7.40;99.90;;;;;;4971752;28;20225;-78
2021/12/14 08:05:13;;;;;;;25.70;20.07;;;7.40;99.90;;;;;;4994454;28;20315;-77
2021/12/14 08:07:43;;;;;;;28.83;20.37;;;7.30;99.90;;;;;;4993504;28;20199;-77
2021/12/14 08:10:17;;;;;;;28.97;20.37;;;7.30;99.90;;;;;;4968347;28;20183;-77
2021/12/14 08:12:50;;;;;;;31.40;21.43;;;7.40;99.90;;;;;;4979499;28;20183;-78
2021/12/14 08:15:25;;;;;;;30.03;22.10;;;7.30;99.90;;;;;;4980530;28;20193;-77
2021/12/14 08:18:28;;;;;;;30.13;20.47;;;7.40;99.90;;;;;;4975661;28;20224;-78
2021/12/14 08:21:22;;;;;;;30.33;20.63;;;7.40;99.90;;;;;;4954690;28;20255;-77
2021/12/14 08:23:57;;;;;;;28.97;20.67;;;7.40;99.90;;;;;;4977703;28;20284;-77
2021/12/14 08:26:43;;;;;;;30.40;21.97;;;7.40;99.90;;;;;;4977502;28;20171;-76
2021/12/14 08:29:21;;;;;;;31.50;22.23;;;7.40;99.90;;;;;;4945269;28;20180;-77
2021/12/14 08:31:57;;;;;;;27.03;20.20;;;7.50;99.90;;;;;;4955479;28;20537;-77
2021/12/14 08:34:32;;;;;;;31.17;21.83;;;7.50;99.90;;;;;;4956637;28;20714;-77
2021/12/14 08:37:10;;;;;;;32.63;20.93;;;7.50;99.90;;;;;;4969608;28;20207;-77
2021/12/14 08:39:47;;;;;;;29.30;21.00;;;7.50;99.90;;;;;;4974099;28;20180;-77
2021/12/14 08:42:27;;;;;;;30.37;22.47;;;7.50;99.90;;;;;;4956889;28;20210;-77
2021/12/14 08:44:58;;;;;;;34.93;22.03;;;7.60;99.90;;;;;;4958539;28;20203;-76
2021/12/14 08:47:39;;;;;;;32.50;22.10;;;7.60;99.90;;;;;;4973128;28;20209;-78
2021/12/14 08:50:10;;;;;;;31.30;21.73;;;7.60;99.90;;;;;;4973788;28;20176;-82
2021/12/14 08:52:36;;;;;;;31.50;22.20;;;7.50;99.90;;;;;;4964519;28;20208;-78
2021/12/14 08:55:08;;;;;;;33.70;22.73;;;7.50;99.90;;;;;;4959792;28;20179;-77
2021/12/14 08:57:38;;;;;;;34.07;23.10;;;7.50;99.90;;;;;;4962452;28;20203;-78
2021/12/14 09:00:25;;;;;;;33.60;23.40;;;7.50;99.90;;;;;;4956791;28;20219;-77
2021/12/14 09:02:58;;;;;;;34.97;22.47;;;7.40;99.90;;;;;;4973148;28;20196;-77
2021/12/14 09:05:41;;;;;;;34.77;22.87;;;7.40;99.90;;;;;;4979284;28;20199;-76
2021/12/14 09:08:08;;;;;;;34.50;23.20;;;7.50;99.90;;;;;;4964561;28;20199;-77
2021/12/14 09:10:43;;;;;;;40.13;24.47;;;7.50;99.90;;;;;;4954865;28;20245;-77
2021/12/14 09:13:12;;;;;;;36.33;23.77;;;7.50;99.90;;;;;;4957211;28;20171;-77
2021/12/14 09:15:47;;;;;;;34.13;23.83;;;7.50;99.90;;;;;;4957589;28;20652;-77
2021/12/14 09:18:16;;;;;;;38.23;24.40;;;7.50;99.90;;;;;;4961029;28;20271;-78
2021/12/14 09:20:50;;;;;;;35.33;24.17;;;7.50;99.90;;;;;;4981448;28;20195;-77
2021/12/14 09:23:23;;;;;;;36.93;25.07;;;7.50;99.90;;;;;;4978104;28;20227;-77
2021/12/14 09:25:50;;;;;;;35.77;24.27;;;7.50;99.90;;;;;;4975347;28;20185;-76
2021/12/14 09:28:25;;;;;;;37.27;24.17;;;7.50;99.90;;;;;;4980448;28;20187;-78
2021/12/14 09:30:59;;;;;;;40.40;25.07;;;7.50;99.90;;;;;;4966481;28;20179;-76
2021/12/14 09:33:26;;;;;;;37.60;24.00;;;7.50;99.90;;;;;;4975313;28;20171;-76
2021/12/14 09:35:55;;;;;;;38.90;26.13;;;7.50;99.90;;;;;;4959007;28;20190;-76
2021/12/14 09:38:30;;;;;;;41.87;25.20;;;7.50;99.90;;;;;;4991388;28;20211;-76
2021/12/14 09:40:58;;;;;;;39.70;25.13;;;7.50;99.90;;;;;;4963362;28;20447;-76
2021/12/14 09:43:24;;;;;;;41.17;26.77;;;7.50;99.90;;;;;;4956536;28;20207;-77
2021/12/14 09:45:54;;;;;;;41.37;26.57;;;7.60;99.90;;;;;;4975372;28;20171;-78
2021/12/14 09:48:24;;;;;;;44.83;26.20;;;7.60;99.90;;;;;;4963204;28;20199;-80
2021/12/14 09:50:50;;;;;;;42.50;26.33;;;7.60;99.90;;;;;;4972458;28;20179;-80
2021/12/14 09:53:22;;;;;;;39.23;25.53;;;7.60;99.90;;;;;;4972666;28;20211;-79
2021/12/14 09:55:50;;;;;;;40.53;25.70;;;7.70;99.90;;;;;;4982763;28;20180;-79
2021/12/14 09:58:31;;;;;;;39.47;26.87;;;7.70;99.90;;;;;;4978077;28;20202;-77
2021/12/14 10:01:05;;;;;;;40.80;25.70;;;7.70;99.90;;;;;;4961742;28;20198;-77
2021/12/14 10:03:31;;;;;;;43.10;26.40;;;7.70;99.90;;;;;;4995429;28;20209;-77
2021/12/14 10:06:05;;;;;;;45.33;26.90;;;7.70;99.90;;;;;;4975736;28;20176;-79
2021/12/14 10:08:35;;;;;;;44.47;27.87;;;7.70;99.90;;;;;;4988649;28;20636;-79
2021/12/14 10:11:08;;;;;;;40.97;26.50;;;7.70;99.90;;;;;;4994124;28;20203;-79
2021/12/14 10:13:37;;;;;;;43.03;28.33;;;7.70;99.90;;;;;;5040474;23;20225;-79
2021/12/14 10:16:04;;;;;;;45.40;27.07;;;7.70;99.90;;;;;;5013487;28;20174;-78
2021/12/14 10:18:37;;;;;;;44.77;28.50;;;7.60;99.90;;;;;;5010284;28;20196;-78
2021/12/14 10:21:14;;;;;;;44.17;27.13;;;7.70;99.90;;;;;;5010979;28;20664;-79
2021/12/14 10:23:44;;;;;;;44.00;28.27;;;7.70;99.90;;;;;;5023101;28;20209;-79
2021/12/14 10:26:15;;;;;;;42.50;27.43;;;7.70;99.90;;;;;;5049032;28;20178;-79
2021/12/14 10:28:48;;;;;;;44.53;27.90;;;7.70;99.90;;;;;;5015385;28;20182;-79
2021/12/14 10:31:28;;;;;;;43.37;28.77;;;7.70;99.90;;;;;;5016004;28;20178;-79
2021/12/14 10:33:56;;;;;;;44.30;27.17;;;7.70;99.90;;;;;;5010363;28;20258;-79
2021/12/14 10:36:37;;;;;;;48.77;30.53;;;7.70;99.90;;;;;;5005650;28;20181;-78
2021/12/14 10:44:39;;;;;;;43.63;28.33;;;7.70;99.90;;;;;;5029985;28;20802;-77
2021/12/14 10:47:07;;;;;;;46.53;28.93;;;7.70;99.90;;;;;;5021875;28;20182;-77
2021/12/14 10:49:33;;;;;;;47.10;28.60;;;7.70;99.90;;;;;;5032711;28;20176;-77
2021/12/14 10:52:16;;;;;;;48.47;28.87;;;7.70;99.90;;;;;;5006517;28;20509;-79
2021/12/14 10:54:55;;;;;;;51.67;31.60;;;7.70;99.90;;;;;;5044956;28;20198;-78
2021/12/14 10:57:33;;;;;;;58.20;32.93;;;7.70;99.90;;;;;;5013870;28;20176;-79
2021/12/14 11:00:29;;;;;;;53.83;31.27;;;7.70;99.90;;;;;;5043221;28;20178;-80
2021/12/14 11:03:07;;;;;;;51.60;30.03;;;7.70;99.90;;;;;;5000436;28;20202;-78
2021/12/14 11:05:35;;;;;;;53.40;32.10;;;7.70;99.90;;;;;;5011713;28;20186;-79
2021/12/14 11:08:01;;;;;;;53.43;31.13;;;7.70;99.90;;;;;;5022556;28;20191;-80
2021/12/14 11:10:35;;;;;;;55.60;32.43;;;7.70;99.90;;;;;;5011193;28;20221;-81
2021/12/14 11:13:12;;;;;;;50.87;30.87;;;7.70;99.90;;;;;;5014937;28;20213;-82
2021/12/14 11:15:55;;;;;;;52.90;30.80;;;7.70;99.90;;;;;;5016635;28;20182;-79
2021/12/14 11:18:27;;;;;;;52.17;30.80;;;7.70;99.90;;;;;;5012147;28;20189;-80
2021/12/14 11:21:07;;;;;;;54.23;31.17;;;7.70;99.90;;;;;;5026468;28;20208;-80
2021/12/14 11:23:40;;;;;;;46.87;30.53;;;7.80;99.90;;;;;;5016146;28;20203;-80
2021/12/14 11:26:21;;;;;;;54.87;33.27;;;7.70;99.90;;;;;;5015790;28;20163;-79
2021/12/14 11:29:19;;;;;;;49.60;30.20;;;7.80;99.90;;;;;;5022506;28;20221;-78
2021/12/14 11:31:55;;;;;;;54.43;30.23;;;7.80;99.90;;;;;;5012869;28;20181;-78
2021/12/14 11:34:34;;;;;;;50.53;29.60;;;7.80;99.90;;;;;;5004441;28;20212;-78
2021/12/14 11:37:14;;;;;;;50.80;30.17;;;7.80;99.90;;;;;;5015609;28;20184;-78
2021/12/14 11:39:47;;;;;;;51.03;29.93;;;7.80;99.90;;;;;;5004096;28;20195;-79
2021/12/14 11:42:20;;;;;;;49.13;29.23;;;7.90;99.90;;;;;;5011440;28;20204;-78
2021/12/14 11:44:51;;;;;;;51.37;29.60;;;7.90;99.90;;;;;;5008630;28;20170;-78
2021/12/14 11:50:19;;;;;;;47.63;28.13;;;7.90;99.90;;;;;;5027131;28;20190;-78
2021/12/14 11:53:05;;;;;;;47.20;27.37;;;7.90;99.90;;;;;;5008839;28;20556;-79
2021/12/14 11:56:10;;;;;;;48.33;29.20;;;7.90;99.90;;;;;;5004269;28;20201;-79
2021/12/14 11:58:57;;;;;;;49.50;29.90;;;7.90;99.90;;;;;;5007839;28;20174;-78
2021/12/14 12:01:37;;;;;;;43.30;27.10;;;7.90;99.90;;;;;;5001921;28;20174;-78
2021/12/14 12:04:17;;;;;;;44.57;26.90;;;8.00;99.90;;;;;;5015855;28;20197;-78
2021/12/14 12:09:39;;;;;;;48.87;26.63;;;8.10;99.90;;;;;;5028441;28;20170;-79
2021/12/14 12:12:22;;;;;;;41.90;26.03;;;8.00;99.90;;;;;;5016228;28;20174;-78
2021/12/14 12:15:27;;;;;;;42.47;26.30;;;8.00;99.90;;;;;;5000627;28;20182;-77
2021/12/14 12:18:00;;;;;;;44.57;25.87;;;8.10;99.90;;;;;;4974922;28;20177;-78
2021/12/14 12:20:26;;;;;;;46.67;25.90;;;8.10;99.90;;;;;;4988171;28;20179;-78
2021/12/14 12:22:54;;;;;;;40.93;24.77;;;8.10;99.90;;;;;;5011737;28;20216;-79
2021/12/14 12:25:28;;;;;;;40.10;25.20;;;8.10;99.90;;;;;;5014326;28;20179;-77
2021/12/14 12:27:58;;;;;;;42.27;25.47;;;8.20;99.90;;;;;;5003435;28;20174;-78
2021/12/14 12:30:48;;;;;;;39.47;24.50;;;8.20;99.90;;;;;;5018661;28;20186;-78
2021/12/14 12:33:31;;;;;;;36.67;23.43;;;8.20;99.90;;;;;;5012176;28;20537;-78
2021/12/14 12:36:21;;;;;;;35.50;23.93;;;8.10;99.90;;;;;;5027192;28;20188;-78
2021/12/14 12:39:16;;;;;;;36.63;23.23;;;8.10;99.90;;;;;;5011411;28;20170;-78
2021/12/14 12:41:49;;;;;;;37.67;23.70;;;8.10;99.90;;;;;;5012781;28;20170;-79
2021/12/14 12:44:23;;;;;;;38.23;23.40;;;8.10;99.90;;;;;;5000558;28;20208;-75
2021/12/14 12:46:54;;;;;;;34.43;22.07;;;8.10;99.90;;;;;;5013139;28;20181;-78
2021/12/14 12:49:29;;;;;;;35.60;22.57;;;8.10;99.90;;;;;;5022398;28;20299;-78
2021/12/14 12:51:59;;;;;;;32.27;21.83;;;8.20;99.90;;;;;;5029751;28;20272;-78
2021/12/14 12:54:58;;;;;;;36.23;22.30;;;8.20;99.90;;;;;;5024944;28;20270;-77
2021/12/14 12:58:17;;;;;;;35.90;23.03;;;8.20;99.90;;;;;;5011560;28;20584;-78
2021/12/14 13:00:47;;;;;;;35.03;21.13;;;8.20;99.90;;;;;;5014520;28;20169;-79
2021/12/14 13:03:29;;;;;;;32.77;21.17;;;8.20;99.90;;;;;;5010556;28;20225;-78
2021/12/14 13:06:16;;;;;;;34.80;21.57;;;8.20;99.90;;;;;;5021000;28;20182;-78
2021/12/14 13:08:52;;;;;;;32.40;21.20;;;8.20;99.90;;;;;;5015622;28;20172;-78
2021/12/14 13:11:39;;;;;;;30.93;20.30;;;8.20;99.90;;;;;;5014450;28;20172;-78
2021/12/14 13:14:08;;;;;;;28.77;19.80;;;8.20;99.90;;;;;;5006436;28;20221;-77
2021/12/14 13:16:36;;;;;;;31.17;20.50;;;8.20;99.90;;;;;;5048198;28;20169;-78
2021/12/14 13:19:17;;;;;;;30.60;20.90;;;8.20;99.90;;;;;;5031166;28;20175;-77
2021/12/14 13:21:53;;;;;;;28.63;19.60;;;8.20;99.90;;;;;;5017441;28;20185;-79
2021/12/14 13:24:29;;;;;;;30.63;20.03;;;8.30;99.90;;;;;;5017616;28;20214;-77
2021/12/14 13:27:07;;;;;;;28.07;18.67;;;8.30;99.90;;;;;;5003271;28;20241;-77
2021/12/14 13:29:44;;;;;;;30.20;20.67;;;8.30;99.90;;;;;;5018866;28;20187;-78
2021/12/14 13:32:33;;;;;;;29.13;20.03;;;8.30;99.90;;;;;;5016966;28;20276;-77
2021/12/14 13:35:07;;;;;;;29.47;19.33;;;8.20;99.90;;;;;;5012247;28;20645;-79
2021/12/14 13:37:37;;;;;;;28.03;17.80;;;8.30;99.90;;;;;;5001339;28;20177;-79
2021/12/14 13:40:15;;;;;;;28.37;18.97;;;8.30;99.90;;;;;;5012876;28;20320;-77
2021/12/14 13:42:59;;;;;;;27.33;18.70;;;8.30;99.90;;;;;;5015439;28;20209;-79
2021/12/14 13:45:30;;;;;;;27.30;18.73;;;8.30;99.90;;;;;;5013093;28;20190;-77
2021/12/14 13:48:09;;;;;;;27.30;18.77;;;8.30;99.90;;;;;;5041468;28;20198;-78
2021/12/14 13:50:44;;;;;;;30.03;18.97;;;8.30;99.90;;;;;;5041513;28;20170;-78
2021/12/14 13:53:10;;;;;;;27.00;19.03;;;8.30;99.90;;;;;;5044097;28;20686;-77
2021/12/14 13:55:42;;;;;;;28.93;18.93;;;8.40;99.90;;;;;;5022402;28;20181;-77